sensor_id;sensor_type;location;lat;lon;timestamp;pressure;altitude;pressure_sealevel;temperature;humidity
75146;BME280;63641;46.526;24.612;2024-02-26T00:02:09;96807.84;;;5.60;70.12
75146;BME280;63641;46.526;24.612;2024-02-26T00:04:36;96812.94;;;5.56;70.25
75146;BME280;63641;46.526;24.612;2024-02-26T00:07:02;96811.56;;;5.54;70.25
75146;BME280;63641;46.526;24.612;2024-02-26T00:09:29;96802.72;;;5.53;70.26
75146;BME280;63641;46.526;24.612;2024-02-26T00:11:56;96799.47;;;5.51;70.28
75146;BME280;63641;46.526;24.612;2024-02-26T00:14:24;96813.69;;;5.52;70.39
75146;BME280;63641;46.526;24.612;2024-02-26T00:16:51;96807.78;;;5.50;70.31
75146;BME280;63641;46.526;24.612;2024-02-26T00:19:18;96810.72;;;5.48;70.37
75146;BME280;63641;46.526;24.612;2024-02-26T00:21:45;96809.63;;;5.44;70.53
75146;BME280;63641;46.526;24.612;2024-02-26T00:24:12;96809.09;;;5.42;70.69
75146;BME280;63641;46.526;24.612;2024-02-26T00:26:39;96806.38;;;5.37;70.40
75146;BME280;63641;46.526;24.612;2024-02-26T00:29:06;96810.41;;;5.35;70.77
75146;BME280;63641;46.526;24.612;2024-02-26T00:31:33;96807.16;;;5.32;70.78
75146;BME280;63641;46.526;24.612;2024-02-26T00:34:00;96807.97;;;5.33;70.91
75146;BME280;63641;46.526;24.612;2024-02-26T00:36:27;96806.63;;;5.30;71.04
75146;BME280;63641;46.526;24.612;2024-02-26T00:38:54;96800.97;;;5.27;71.14
75146;BME280;63641;46.526;24.612;2024-02-26T00:41:20;96797.19;;;5.23;71.07
75146;BME280;63641;46.526;24.612;2024-02-26T00:43:47;96804.16;;;5.24;71.15
75146;BME280;63641;46.526;24.612;2024-02-26T00:46:14;96799.03;;;5.17;71.15
75146;BME280;63641;46.526;24.612;2024-02-26T00:48:41;96801.44;;;5.19;71.31
75146;BME280;63641;46.526;24.612;2024-02-26T00:51:08;96794.97;;;5.15;71.48
75146;BME280;63641;46.526;24.612;2024-02-26T00:53:35;96795.50;;;5.12;71.33
75146;BME280;63641;46.526;24.612;2024-02-26T00:56:02;96796.03;;;5.08;71.55
75146;BME280;63641;46.526;24.612;2024-02-26T00:58:29;96793.06;;;5.05;71.28
75146;BME280;63641;46.526;24.612;2024-02-26T01:00:56;96797.34;;;5.06;71.86
75146;BME280;63641;46.526;24.612;2024-02-26T01:03:23;96788.75;;;5.04;71.81
75146;BME280;63641;46.526;24.612;2024-02-26T01:05:49;96782.34;;;5.05;71.85
75146;BME280;63641;46.526;24.612;2024-02-26T01:08:18;96772.94;;;5.02;71.53
75146;BME280;63641;46.526;24.612;2024-02-26T01:10:45;96775.59;;;4.97;71.89
75146;BME280;63641;46.526;24.612;2024-02-26T01:13:12;96775.03;;;4.95;71.90
75146;BME280;63641;46.526;24.612;2024-02-26T01:15:39;96778.78;;;4.94;71.83
75146;BME280;63641;46.526;24.612;2024-02-26T01:18:05;96768.88;;;4.95;72.18
75146;BME280;63641;46.526;24.612;2024-02-26T01:20:32;96771.53;;;4.95;72.24
75146;BME280;63641;46.526;24.612;2024-02-26T01:22:59;96766.97;;;4.90;72.18
75146;BME280;63641;46.526;24.612;2024-02-26T01:25:26;96763.19;;;4.86;72.05
75146;BME280;63641;46.526;24.612;2024-02-26T01:27:53;96762.63;;;4.84;71.90
75146;BME280;63641;46.526;24.612;2024-02-26T01:30:20;96759.16;;;4.83;72.08
75146;BME280;63641;46.526;24.612;2024-02-26T01:32:47;96760.72;;;4.79;72.32
75146;BME280;63641;46.526;24.612;2024-02-26T01:35:14;96759.38;;;4.77;72.21
75146;BME280;63641;46.526;24.612;2024-02-26T01:37:41;96746.47;;;4.74;72.40
75146;BME280;63641;46.526;24.612;2024-02-26T01:40:09;96756.66;;;4.72;72.41
75146;BME280;63641;46.526;24.612;2024-02-26T01:42:38;96757.16;;;4.69;72.41
75146;BME280;63641;46.526;24.612;2024-02-26T01:45:05;96746.38;;;4.58;72.31
75146;BME280;63641;46.526;24.612;2024-02-26T01:47:34;96748.84;;;4.65;72.64
75146;BME280;63641;46.526;24.612;2024-02-26T01:50:01;96760.34;;;4.66;72.82
75146;BME280;63641;46.526;24.612;2024-02-26T01:52:28;96751.25;;;4.67;72.65
75146;BME280;63641;46.526;24.612;2024-02-26T01:54:55;96759.56;;;4.65;72.70
75146;BME280;63641;46.526;24.612;2024-02-26T01:57:22;96747.75;;;4.66;72.92
75146;BME280;63641;46.526;24.612;2024-02-26T01:59:49;96763.06;;;4.71;72.94
75146;BME280;63641;46.526;24.612;2024-02-26T02:02:16;96752.91;;;4.73;73.10
75146;BME280;63641;46.526;24.612;2024-02-26T02:04:43;96752.34;;;4.71;73.20
75146;BME280;63641;46.526;24.612;2024-02-26T02:07:09;96760.66;;;4.69;73.07
75146;BME280;63641;46.526;24.612;2024-02-26T02:09:37;96760.13;;;4.72;73.16
75146;BME280;63641;46.526;24.612;2024-02-26T02:12:04;96755.28;;;4.69;73.15
75146;BME280;63641;46.526;24.612;2024-02-26T02:14:32;96763.84;;;4.66;73.09
75146;BME280;63641;46.526;24.612;2024-02-26T02:16:59;96761.66;;;4.63;73.38
75146;BME280;63641;46.526;24.612;2024-02-26T02:19:26;96758.69;;;4.59;73.27
75146;BME280;63641;46.526;24.612;2024-02-26T02:21:53;96764.03;;;4.54;73.33
75146;BME280;63641;46.526;24.612;2024-02-26T02:24:19;96767.22;;;4.51;73.27
75146;BME280;63641;46.526;24.612;2024-02-26T02:26:46;96767.47;;;4.50;73.55
75146;BME280;63641;46.526;24.612;2024-02-26T02:29:14;96774.41;;;4.46;73.35
75146;BME280;63641;46.526;24.612;2024-02-26T02:31:41;96774.13;;;4.42;73.46
75146;BME280;63641;46.526;24.612;2024-02-26T02:34:09;96770.31;;;4.38;73.45
75146;BME280;63641;46.526;24.612;2024-02-26T02:36:53;96755.78;;;4.29;73.39
75146;BME280;63641;46.526;24.612;2024-02-26T02:39:20;96760.34;;;4.28;73.27
75146;BME280;63641;46.526;24.612;2024-02-26T02:41:47;96767.00;;;4.26;73.27
75146;BME280;63641;46.526;24.612;2024-02-26T02:44:14;96768.06;;;4.25;73.55
75146;BME280;63641;46.526;24.612;2024-02-26T02:46:41;96769.75;;;4.31;73.53
75146;BME280;63641;46.526;24.612;2024-02-26T02:49:09;96774.56;;;4.34;73.58
75146;BME280;63641;46.526;24.612;2024-02-26T02:51:37;96787.72;;;4.35;73.52
75146;BME280;63641;46.526;24.612;2024-02-26T02:54:04;96792.78;;;4.32;73.46
75146;BME280;63641;46.526;24.612;2024-02-26T02:56:31;96801.34;;;4.34;73.63
75146;BME280;63641;46.526;24.612;2024-02-26T02:58:57;96794.88;;;4.30;73.84
75146;BME280;63641;46.526;24.612;2024-02-26T03:01:24;96805.59;;;4.30;73.86
75146;BME280;63641;46.526;24.612;2024-02-26T03:03:51;96801.56;;;4.27;73.86
75146;BME280;63641;46.526;24.612;2024-02-26T03:06:18;96804.78;;;4.29;73.87
75146;BME280;63641;46.526;24.612;2024-02-26T03:08:45;96801.81;;;4.26;73.85
75146;BME280;63641;46.526;24.612;2024-02-26T03:11:15;96803.38;;;4.22;73.89
75146;BME280;63641;46.526;24.612;2024-02-26T03:13:42;96806.31;;;4.20;73.92
75146;BME280;63641;46.526;24.612;2024-02-26T03:16:09;96798.53;;;4.19;73.99
75146;BME280;63641;46.526;24.612;2024-02-26T03:18:35;96788.31;;;4.16;74.25
75146;BME280;63641;46.526;24.612;2024-02-26T03:21:05;96795.81;;;4.14;74.18
75146;BME280;63641;46.526;24.612;2024-02-26T03:23:32;96793.38;;;4.12;74.13
75146;BME280;63641;46.526;24.612;2024-02-26T03:26:03;96789.59;;;4.08;74.08
75146;BME280;63641;46.526;24.612;2024-02-26T03:28:30;96790.66;;;4.07;74.30
75146;BME280;63641;46.526;24.612;2024-02-26T03:31:00;96795.19;;;4.06;74.28
75146;BME280;63641;46.526;24.612;2024-02-26T03:33:27;96789.03;;;4.06;74.19
75146;BME280;63641;46.526;24.612;2024-02-26T03:35:54;96788.25;;;4.05;74.20
75146;BME280;63641;46.526;24.612;2024-02-26T03:38:21;96785.00;;;4.03;74.15
75146;BME280;63641;46.526;24.612;2024-02-26T03:40:48;96789.25;;;3.99;74.13
75146;BME280;63641;46.526;24.612;2024-02-26T03:43:15;96792.69;;;3.95;74.08
75146;BME280;63641;46.526;24.612;2024-02-26T03:45:42;96785.94;;;3.92;74.40
75146;BME280;63641;46.526;24.612;2024-02-26T03:48:08;96788.31;;;3.88;74.36
75146;BME280;63641;46.526;24.612;2024-02-26T03:50:35;96790.94;;;3.83;74.43
75146;BME280;63641;46.526;24.612;2024-02-26T03:53:02;96790.16;;;3.83;74.57
75146;BME280;63641;46.526;24.612;2024-02-26T03:55:29;96787.66;;;3.76;74.49
75146;BME280;63641;46.526;24.612;2024-02-26T03:57:56;96793.75;;;3.72;74.66
75146;BME280;63641;46.526;24.612;2024-02-26T04:00:22;96792.63;;;3.68;74.47
75146;BME280;63641;46.526;24.612;2024-02-26T04:02:49;96787.81;;;3.65;74.53
75146;BME280;63641;46.526;24.612;2024-02-26T04:05:16;96782.94;;;3.61;74.79
75146;BME280;63641;46.526;24.612;2024-02-26T04:07:43;96786.66;;;3.60;74.42
75146;BME280;63641;46.526;24.612;2024-02-26T04:10:10;96784.81;;;3.61;74.45
75146;BME280;63641;46.526;24.612;2024-02-26T04:12:41;96791.69;;;3.57;74.76
75146;BME280;63641;46.526;24.612;2024-02-26T04:15:09;96792.53;;;3.57;74.76
75146;BME280;63641;46.526;24.612;2024-02-26T04:17:37;96783.94;;;3.55;74.56
75146;BME280;63641;46.526;24.612;2024-02-26T04:20:04;96791.69;;;3.57;74.61
75146;BME280;63641;46.526;24.612;2024-02-26T04:22:34;96787.41;;;3.56;74.67
75146;BME280;63641;46.526;24.612;2024-02-26T04:25:01;96769.97;;;3.53;74.73
75146;BME280;63641;46.526;24.612;2024-02-26T04:27:27;96785.00;;;3.54;74.91
75146;BME280;63641;46.526;24.612;2024-02-26T04:29:54;96776.78;;;3.61;74.75
75146;BME280;63641;46.526;24.612;2024-02-26T04:32:21;96770.91;;;3.64;74.96
75146;BME280;63641;46.526;24.612;2024-02-26T04:34:48;96780.34;;;3.72;75.03
75146;BME280;63641;46.526;24.612;2024-02-26T04:37:15;96777.19;;;3.75;74.93
75146;BME280;63641;46.526;24.612;2024-02-26T04:39:41;96783.34;;;3.75;74.81
75146;BME280;63641;46.526;24.612;2024-02-26T04:42:08;96772.34;;;3.72;74.79
75146;BME280;63641;46.526;24.612;2024-02-26T04:44:35;96780.63;;;3.70;74.80
75146;BME280;63641;46.526;24.612;2024-02-26T04:47:02;96771.22;;;3.68;74.98
75146;BME280;63641;46.526;24.612;2024-02-26T04:49:28;96770.06;;;3.58;74.70
75146;BME280;63641;46.526;24.612;2024-02-26T04:51:55;96771.94;;;3.58;74.92
75146;BME280;63641;46.526;24.612;2024-02-26T04:54:22;96782.06;;;3.56;75.02
75146;BME280;63641;46.526;24.612;2024-02-26T04:56:49;96781.75;;;3.52;75.02
75146;BME280;63641;46.526;24.612;2024-02-26T04:59:16;96782.56;;;3.53;74.89
75146;BME280;63641;46.526;24.612;2024-02-26T05:01:42;96772.00;;;3.41;74.93
75146;BME280;63641;46.526;24.612;2024-02-26T05:04:09;96780.81;;;3.42;75.03
75146;BME280;63641;46.526;24.612;2024-02-26T05:06:37;96780.50;;;3.38;75.05
75146;BME280;63641;46.526;24.612;2024-02-26T05:09:04;96787.66;;;3.32;75.17
75146;BME280;63641;46.526;24.612;2024-02-26T05:11:31;96789.53;;;3.32;75.01
75146;BME280;63641;46.526;24.612;2024-02-26T05:13:58;96798.09;;;3.34;75.12
75146;BME280;63641;46.526;24.612;2024-02-26T05:16:26;96790.66;;;3.36;75.15
75146;BME280;63641;46.526;24.612;2024-02-26T05:18:53;96786.59;;;3.33;74.94
75146;BME280;63641;46.526;24.612;2024-02-26T05:21:20;96785.00;;;3.32;75.12
75146;BME280;63641;46.526;24.612;2024-02-26T05:23:47;96774.72;;;3.24;74.98
75146;BME280;63641;46.526;24.612;2024-02-26T05:26:21;96792.44;;;3.30;75.11
75146;BME280;63641;46.526;24.612;2024-02-26T05:28:49;96801.28;;;3.31;74.97
75146;BME280;63641;46.526;24.612;2024-02-26T05:31:16;96794.31;;;3.30;75.08
75146;BME280;63641;46.526;24.612;2024-02-26T05:33:44;96800.22;;;3.32;74.96
75146;BME280;63641;46.526;24.612;2024-02-26T05:36:18;96796.50;;;3.33;75.21
75146;BME280;63641;46.526;24.612;2024-02-26T05:38:46;96800.53;;;3.35;75.22
75146;BME280;63641;46.526;24.612;2024-02-26T05:41:15;96799.22;;;3.38;75.10
75146;BME280;63641;46.526;24.612;2024-02-26T05:43:42;96800.34;;;3.42;74.97
75146;BME280;63641;46.526;24.612;2024-02-26T05:46:09;96803.31;;;3.46;75.06
75146;BME280;63641;46.526;24.612;2024-02-26T05:48:35;96800.66;;;3.46;75.25
75146;BME280;63641;46.526;24.612;2024-02-26T05:51:04;96807.19;;;3.55;75.07
75146;BME280;63641;46.526;24.612;2024-02-26T05:53:31;96807.03;;;3.61;75.43
75146;BME280;63641;46.526;24.612;2024-02-26T05:55:57;96807.63;;;3.69;75.53
75146;BME280;63641;46.526;24.612;2024-02-26T05:58:24;96807.81;;;3.84;75.52
75146;BME280;63641;46.526;24.612;2024-02-26T06:00:51;96814.31;;;3.93;75.47
75146;BME280;63641;46.526;24.612;2024-02-26T06:03:18;96814.41;;;3.98;75.64
75146;BME280;63641;46.526;24.612;2024-02-26T06:05:46;96809.34;;;4.02;75.34
75146;BME280;63641;46.526;24.612;2024-02-26T06:08:13;96819.34;;;4.11;75.57
75146;BME280;63641;46.526;24.612;2024-02-26T06:10:40;96819.41;;;4.17;75.88
75146;BME280;63641;46.526;24.612;2024-02-26T06:13:07;96810.34;;;4.23;75.77
75146;BME280;63641;46.526;24.612;2024-02-26T06:15:34;96813.69;;;4.35;75.92
75146;BME280;63641;46.526;24.612;2024-02-26T06:18:00;96807.56;;;4.40;75.90
75146;BME280;63641;46.526;24.612;2024-02-26T06:20:28;96814.91;;;4.49;75.86
75146;BME280;63641;46.526;24.612;2024-02-26T06:22:55;96813.06;;;4.55;76.04
75146;BME280;63641;46.526;24.612;2024-02-26T06:25:22;96812.84;;;4.62;76.00
75146;BME280;63641;46.526;24.612;2024-02-26T06:27:49;96814.75;;;4.66;76.46
75146;BME280;63641;46.526;24.612;2024-02-26T06:30:15;96815.09;;;4.75;76.29
75146;BME280;63641;46.526;24.612;2024-02-26T06:32:42;96815.44;;;4.83;76.13
75146;BME280;63641;46.526;24.612;2024-02-26T06:35:10;96812.47;;;4.85;76.49
75146;BME280;63641;46.526;24.612;2024-02-26T06:37:38;96821.16;;;4.97;76.38
75146;BME280;63641;46.526;24.612;2024-02-26T06:40:06;96806.69;;;4.98;76.23
75146;BME280;63641;46.526;24.612;2024-02-26T06:42:33;96814.84;;;5.14;76.48
75146;BME280;63641;46.526;24.612;2024-02-26T06:45:00;96808.47;;;5.25;76.42
75146;BME280;63641;46.526;24.612;2024-02-26T06:47:27;96810.66;;;5.33;76.29
75146;BME280;63641;46.526;24.612;2024-02-26T06:49:54;96812.03;;;5.41;76.45
75146;BME280;63641;46.526;24.612;2024-02-26T06:52:25;96812.88;;;5.51;76.44
75146;BME280;63641;46.526;24.612;2024-02-26T06:54:52;96812.38;;;5.60;76.41
75146;BME280;63641;46.526;24.612;2024-02-26T06:57:22;96811.34;;;5.66;76.31
75146;BME280;63641;46.526;24.612;2024-02-26T06:59:49;96806.53;;;5.73;76.38
75146;BME280;63641;46.526;24.612;2024-02-26T07:02:16;96815.72;;;5.82;76.26
75146;BME280;63641;46.526;24.612;2024-02-26T07:04:43;96810.91;;;5.89;76.21
75146;BME280;63641;46.526;24.612;2024-02-26T07:07:10;96811.22;;;5.98;76.01
75146;BME280;63641;46.526;24.612;2024-02-26T07:09:37;96819.03;;;6.10;76.11
75146;BME280;63641;46.526;24.612;2024-02-26T07:12:04;96815.84;;;6.18;76.10
75146;BME280;63641;46.526;24.612;2024-02-26T07:14:31;96820.16;;;6.29;75.95
75146;BME280;63641;46.526;24.612;2024-02-26T07:16:59;96819.66;;;6.37;75.82
75146;BME280;63641;46.526;24.612;2024-02-26T07:19:25;96825.31;;;6.46;75.71
75146;BME280;63641;46.526;24.612;2024-02-26T07:21:52;96828.25;;;6.54;75.62
75146;BME280;63641;46.526;24.612;2024-02-26T07:24:19;96831.50;;;6.67;75.60
75146;BME280;63641;46.526;24.612;2024-02-26T07:26:46;96818.06;;;6.72;75.73
75146;BME280;63641;46.526;24.612;2024-02-26T07:29:13;96827.47;;;6.90;75.65
75146;BME280;63641;46.526;24.612;2024-02-26T07:31:40;96823.97;;;6.99;75.65
75146;BME280;63641;46.526;24.612;2024-02-26T07:34:06;96830.94;;;7.16;75.69
75146;BME280;63641;46.526;24.612;2024-02-26T07:36:34;96818.28;;;7.26;75.67
75146;BME280;63641;46.526;24.612;2024-02-26T07:39:02;96821.47;;;7.39;75.60
75146;BME280;63641;46.526;24.612;2024-02-26T07:41:29;96817.69;;;7.55;75.48
75146;BME280;63641;46.526;24.612;2024-02-26T07:43:56;96815.19;;;7.69;75.34
75146;BME280;63641;46.526;24.612;2024-02-26T07:46:23;96820.00;;;7.82;75.04
75146;BME280;63641;46.526;24.612;2024-02-26T07:48:50;96822.13;;;7.90;75.12
75146;BME280;63641;46.526;24.612;2024-02-26T07:51:17;96821.03;;;7.96;75.02
75146;BME280;63641;46.526;24.612;2024-02-26T07:53:44;96817.19;;;8.08;74.85
75146;BME280;63641;46.526;24.612;2024-02-26T07:56:10;96818.22;;;8.17;74.77
75146;BME280;63641;46.526;24.612;2024-02-26T07:58:37;96816.28;;;8.28;74.83
75146;BME280;63641;46.526;24.612;2024-02-26T08:01:04;96818.13;;;8.37;74.65
75146;BME280;63641;46.526;24.612;2024-02-26T08:03:31;96815.38;;;8.48;74.62
75146;BME280;63641;46.526;24.612;2024-02-26T08:05:57;96816.13;;;8.58;74.44
75146;BME280;63641;46.526;24.612;2024-02-26T08:08:24;96815.47;;;8.71;74.34
75146;BME280;63641;46.526;24.612;2024-02-26T08:10:51;96810.28;;;8.80;74.35
75146;BME280;63641;46.526;24.612;2024-02-26T08:13:18;96816.91;;;8.93;74.30
75146;BME280;63641;46.526;24.612;2024-02-26T08:15:45;96814.94;;;9.04;74.14
75146;BME280;63641;46.526;24.612;2024-02-26T08:18:12;96806.47;;;9.15;74.04
75146;BME280;63641;46.526;24.612;2024-02-26T08:20:39;96809.88;;;9.26;73.82
75146;BME280;63641;46.526;24.612;2024-02-26T08:23:05;96821.06;;;9.38;73.73
75146;BME280;63641;46.526;24.612;2024-02-26T08:25:32;96813.09;;;9.52;73.39
75146;BME280;63641;46.526;24.612;2024-02-26T08:27:59;96809.19;;;9.63;73.04
75146;BME280;63641;46.526;24.612;2024-02-26T08:30:26;96804.50;;;9.74;72.67
75146;BME280;63641;46.526;24.612;2024-02-26T08:32:53;96800.56;;;9.85;72.58
75146;BME280;63641;46.526;24.612;2024-02-26T08:35:20;96802.06;;;9.97;72.26
75146;BME280;63641;46.526;24.612;2024-02-26T08:37:47;96806.69;;;10.15;71.96
75146;BME280;63641;46.526;24.612;2024-02-26T08:40:15;96801.88;;;10.31;71.46
75146;BME280;63641;46.526;24.612;2024-02-26T08:42:42;96813.00;;;10.48;71.41
75146;BME280;63641;46.526;24.612;2024-02-26T08:45:09;96801.72;;;10.60;70.95
75146;BME280;63641;46.526;24.612;2024-02-26T08:47:36;96808.38;;;10.86;70.54
75146;BME280;63641;46.526;24.612;2024-02-26T08:50:04;96806.00;;;10.99;69.98
75146;BME280;63641;46.526;24.612;2024-02-26T08:52:32;96814.28;;;11.21;69.56
75146;BME280;63641;46.526;24.612;2024-02-26T08:54:59;96815.13;;;11.35;68.76
75146;BME280;63641;46.526;24.612;2024-02-26T08:57:26;96813.72;;;11.52;68.42
75146;BME280;63641;46.526;24.612;2024-02-26T08:59:56;96808.31;;;11.66;67.82
75146;BME280;63641;46.526;24.612;2024-02-26T09:02:23;96808.34;;;11.79;67.15
75146;BME280;63641;46.526;24.612;2024-02-26T09:04:49;96808.84;;;11.95;66.65
75146;BME280;63641;46.526;24.612;2024-02-26T09:07:20;96800.50;;;12.05;66.34
75146;BME280;63641;46.526;24.612;2024-02-26T09:09:47;96806.91;;;12.23;65.85
75146;BME280;63641;46.526;24.612;2024-02-26T09:12:14;96808.69;;;12.42;65.49
75146;BME280;63641;46.526;24.612;2024-02-26T09:14:40;96808.22;;;12.62;64.99
75146;BME280;63641;46.526;24.612;2024-02-26T09:17:07;96802.72;;;12.76;64.11
75146;BME280;63641;46.526;24.612;2024-02-26T09:19:34;96811.31;;;12.92;63.67
75146;BME280;63641;46.526;24.612;2024-02-26T09:22:01;96808.16;;;12.98;63.00
75146;BME280;63641;46.526;24.612;2024-02-26T09:24:28;96812.66;;;13.03;62.83
75146;BME280;63641;46.526;24.612;2024-02-26T09:26:55;96814.47;;;13.08;62.33
75146;BME280;63641;46.526;24.612;2024-02-26T09:29:21;96804.09;;;13.10;62.01
75146;BME280;63641;46.526;24.612;2024-02-26T09:31:48;96813.22;;;13.14;61.84
75146;BME280;63641;46.526;24.612;2024-02-26T09:34:15;96804.94;;;13.19;61.59
75146;BME280;63641;46.526;24.612;2024-02-26T09:36:43;96804.03;;;13.23;61.32
75146;BME280;63641;46.526;24.612;2024-02-26T09:39:09;96809.94;;;13.25;61.16
75146;BME280;63641;46.526;24.612;2024-02-26T09:41:38;96796.72;;;13.33;60.88
75146;BME280;63641;46.526;24.612;2024-02-26T09:44:06;96798.91;;;13.53;60.56
75146;BME280;63641;46.526;24.612;2024-02-26T09:46:33;96798.19;;;13.70;60.02
75146;BME280;63641;46.526;24.612;2024-02-26T09:49:00;96790.59;;;13.89;59.66
75146;BME280;63641;46.526;24.612;2024-02-26T09:51:27;96794.00;;;14.12;59.27
75146;BME280;63641;46.526;24.612;2024-02-26T09:53:59;96779.78;;;14.24;58.55
75146;BME280;63641;46.526;24.612;2024-02-26T09:56:28;96788.28;;;14.40;58.40
75146;BME280;63641;46.526;24.612;2024-02-26T09:58:57;96781.38;;;14.42;58.54
75146;BME280;63641;46.526;24.612;2024-02-26T10:01:24;96780.94;;;14.58;58.16
75146;BME280;63641;46.526;24.612;2024-02-26T10:03:55;96775.66;;;14.61;57.89
75146;BME280;63641;46.526;24.612;2024-02-26T10:06:26;96771.66;;;14.67;57.43
75146;BME280;63641;46.526;24.612;2024-02-26T10:08:53;96778.38;;;14.79;57.35
75146;BME280;63641;46.526;24.612;2024-02-26T10:11:22;96772.91;;;14.87;56.60
75146;BME280;63641;46.526;24.612;2024-02-26T10:13:50;96762.19;;;14.91;56.40
75146;BME280;63641;46.526;24.612;2024-02-26T10:16:16;96767.00;;;14.94;56.34
75146;BME280;63641;46.526;24.612;2024-02-26T10:21:17;96764.75;;;14.96;55.96
75146;BME280;63641;46.526;24.612;2024-02-26T10:23:47;96763.63;;;14.97;55.77
75146;BME280;63641;46.526;24.612;2024-02-26T10:26:15;96769.88;;;14.97;55.83
75146;BME280;63641;46.526;24.612;2024-02-26T10:28:43;96765.72;;;15.00;55.71
75146;BME280;63641;46.526;24.612;2024-02-26T10:31:10;96766.50;;;15.01;55.66
75146;BME280;63641;46.526;24.612;2024-02-26T10:33:38;96760.56;;;15.07;55.42
75146;BME280;63641;46.526;24.612;2024-02-26T10:36:09;96760.38;;;15.12;55.01
75146;BME280;63641;46.526;24.612;2024-02-26T10:38:37;96754.09;;;15.20;55.04
75146;BME280;63641;46.526;24.612;2024-02-26T10:41:06;96748.94;;;15.28;54.77
75146;BME280;63641;46.526;24.612;2024-02-26T10:43:33;96748.16;;;15.36;54.51
75146;BME280;63641;46.526;24.612;2024-02-26T10:45:59;96746.19;;;15.45;54.19
75146;BME280;63641;46.526;24.612;2024-02-26T10:48:26;96748.06;;;15.53;54.12
75146;BME280;63641;46.526;24.612;2024-02-26T10:50:54;96748.69;;;15.59;53.80
75146;BME280;63641;46.526;24.612;2024-02-26T10:53:23;96747.09;;;15.66;53.60
75146;BME280;63641;46.526;24.612;2024-02-26T10:56:00;96750.75;;;15.70;53.21
75146;BME280;63641;46.526;24.612;2024-02-26T10:58:28;96748.97;;;15.75;53.11
75146;BME280;63641;46.526;24.612;2024-02-26T11:00:56;96752.19;;;15.77;52.87
75146;BME280;63641;46.526;24.612;2024-02-26T11:03:24;96734.19;;;15.76;52.81
75146;BME280;63641;46.526;24.612;2024-02-26T11:05:52;96737.41;;;15.78;52.72
75146;BME280;63641;46.526;24.612;2024-02-26T11:08:20;96736.09;;;15.84;52.39
75146;BME280;63641;46.526;24.612;2024-02-26T11:10:53;96744.06;;;15.89;52.29
75146;BME280;63641;46.526;24.612;2024-02-26T11:13:21;96742.78;;;15.95;52.12
75146;BME280;63641;46.526;24.612;2024-02-26T11:15:50;96740.31;;;16.02;51.76
75146;BME280;63641;46.526;24.612;2024-02-26T11:18:19;96737.03;;;16.09;51.25
75146;BME280;63641;46.526;24.612;2024-02-26T11:20:48;96730.78;;;16.08;51.00
75146;BME280;63641;46.526;24.612;2024-02-26T11:23:15;96741.31;;;16.18;51.17
75146;BME280;63641;46.526;24.612;2024-02-26T11:25:42;96732.13;;;16.23;50.89
75146;BME280;63641;46.526;24.612;2024-02-26T11:28:13;96736.06;;;16.34;50.70
75146;BME280;63641;46.526;24.612;2024-02-26T11:30:45;96731.09;;;16.36;50.36
75146;BME280;63641;46.526;24.612;2024-02-26T11:33:14;96733.59;;;16.41;50.25
75146;BME280;63641;46.526;24.612;2024-02-26T11:35:42;96733.41;;;16.47;50.17
75146;BME280;63641;46.526;24.612;2024-02-26T11:38:17;96735.63;;;16.53;50.17
75146;BME280;63641;46.526;24.612;2024-02-26T11:40:46;96729.28;;;16.61;49.78
75146;BME280;63641;46.526;24.612;2024-02-26T11:43:14;96733.88;;;16.70;49.49
75146;BME280;63641;46.526;24.612;2024-02-26T11:48:16;96737.72;;;16.89;49.07
75146;BME280;63641;46.526;24.612;2024-02-26T11:50:48;96731.03;;;16.99;48.93
75146;BME280;63641;46.526;24.612;2024-02-26T11:53:28;96727.53;;;17.11;48.50
75146;BME280;63641;46.526;24.612;2024-02-26T12:04:26;96723.56;;;17.21;48.04
75146;BME280;63641;46.526;24.612;2024-02-26T12:07:02;96720.50;;;17.22;47.90
75146;BME280;63641;46.526;24.612;2024-02-26T12:09:34;96725.63;;;17.24;47.97
75146;BME280;63641;46.526;24.612;2024-02-26T12:12:07;96720.38;;;17.19;47.77
75146;BME280;63641;46.526;24.612;2024-02-26T12:14:51;96723.09;;;17.19;48.03
75146;BME280;63641;46.526;24.612;2024-02-26T12:17:25;96719.25;;;17.20;47.79
75146;BME280;63641;46.526;24.612;2024-02-26T12:19:52;96716.66;;;17.23;47.82
75146;BME280;63641;46.526;24.612;2024-02-26T12:22:20;96726.19;;;17.29;47.43
75146;BME280;63641;46.526;24.612;2024-02-26T12:24:47;96725.53;;;17.32;47.56
75146;BME280;63641;46.526;24.612;2024-02-26T12:27:14;96719.28;;;17.32;47.41
75146;BME280;63641;46.526;24.612;2024-02-26T12:29:41;96723.03;;;17.39;47.23
75146;BME280;63641;46.526;24.612;2024-02-26T12:32:08;96727.03;;;17.42;47.23
75146;BME280;63641;46.526;24.612;2024-02-26T12:34:35;96718.38;;;17.40;46.89
75146;BME280;63641;46.526;24.612;2024-02-26T12:37:03;96717.69;;;17.43;46.59
75146;BME280;63641;46.526;24.612;2024-02-26T12:39:30;96722.34;;;17.43;46.66
75146;BME280;63641;46.526;24.612;2024-02-26T12:41:57;96714.25;;;17.34;46.41
75146;BME280;63641;46.526;24.612;2024-02-26T12:44:26;96719.03;;;17.37;46.57
75146;BME280;63641;46.526;24.612;2024-02-26T12:47:02;96720.66;;;17.38;46.52
75146;BME280;63641;46.526;24.612;2024-02-26T12:49:30;96724.50;;;17.37;46.55
75146;BME280;63641;46.526;24.612;2024-02-26T12:51:58;96724.50;;;17.37;46.40
75146;BME280;63641;46.526;24.612;2024-02-26T12:54:31;96725.06;;;17.30;46.33
75146;BME280;63641;46.526;24.612;2024-02-26T12:57:01;96723.69;;;17.24;46.38
75146;BME280;63641;46.526;24.612;2024-02-26T12:59:31;96721.63;;;17.21;46.57
75146;BME280;63641;46.526;24.612;2024-02-26T13:01:58;96716.53;;;17.20;46.52
75146;BME280;63641;46.526;24.612;2024-02-26T13:04:28;96720.84;;;17.21;46.58
75146;BME280;63641;46.526;24.612;2024-02-26T13:06:55;96718.00;;;17.17;46.89
75146;BME280;63641;46.526;24.612;2024-02-26T13:09:27;96724.25;;;17.18;46.67
75146;BME280;63641;46.526;24.612;2024-02-26T13:11:55;96718.78;;;17.18;46.65
75146;BME280;63641;46.526;24.612;2024-02-26T13:14:22;96713.31;;;17.18;46.20